Terminal Aerodrome Forecast
Issued by NWS Jackson, MS

Home | Current Version | Previous Version | Text Only | Print | Product List | Glossary On
Versions: 1 2 3 4 5 6 7 8 9 10 11 12 13
000
FTUS44 KJAN 301733
TAFGLH
TAF
KGLH 301733Z 3018/0118 19012KT P6SM VCTS FEW022CB SCT070
     FM302300 26010KT P6SM SCT050
     FM011500 24010KT 6SM HZ SCT250=

USA.gov is the U.S. government's official web portal to all federal, state and local government web resources and services.